Time;durP1;ratioP1;P1;durP2;ratioP2;P2;SDS_P1;SDS_P2;PMS_P1;PMS_P2;Temp;Humidity;BMP_temperature;BMP_pressure;BME280_temperature;BME280_humidity;BME280_pressure;Samples;Min_cycle;Max_cycle;Signal;HPM_P1;HPM_P2
2022/11/07 00:00:20;;;;;;;2.13;1.67;;;11.40;99.90;;;;;;4982239;28;20232;-77
2022/11/07 00:02:47;;;;;;;3.43;2.20;;;11.40;99.90;;;;;;4983277;28;20543;-76
2022/11/07 00:05:15;;;;;;;2.27;1.73;;;11.40;99.90;;;;;;4989094;28;20284;-77
2022/11/07 00:07:42;;;;;;;3.77;1.77;;;11.50;99.90;;;;;;4985431;28;20217;-77
2022/11/07 00:10:11;;;;;;;2.47;1.70;;;11.50;99.90;;;;;;4991622;28;20220;-77
2022/11/07 00:12:39;;;;;;;2.80;1.77;;;11.50;99.90;;;;;;4974713;28;20197;-77
2022/11/07 00:15:07;;;;;;;2.13;1.83;;;11.50;99.90;;;;;;4991301;28;20196;-77
2022/11/07 00:17:34;;;;;;;3.37;1.90;;;11.50;99.90;;;;;;4984977;28;20192;-77
2022/11/07 00:20:02;;;;;;;3.57;2.27;;;11.50;99.90;;;;;;4983023;28;20234;-77
2022/11/07 00:22:29;;;;;;;3.80;2.00;;;11.50;99.90;;;;;;4986634;28;20201;-77
2022/11/07 00:24:57;;;;;;;2.77;1.67;;;11.50;99.90;;;;;;4986795;28;20216;-77
2022/11/07 00:27:26;;;;;;;2.40;1.63;;;11.50;99.90;;;;;;4979531;28;20216;-77
2022/11/07 00:30:09;;;;;;;3.53;1.70;;;11.50;99.90;;;;;;4976427;28;20225;-77
2022/11/07 00:32:36;;;;;;;4.40;2.03;;;11.50;99.90;;;;;;4985431;28;20201;-77
2022/11/07 00:35:04;;;;;;;4.00;1.77;;;11.60;99.90;;;;;;4985223;28;20204;-77
2022/11/07 00:37:31;;;;;;;2.40;1.70;;;11.60;99.90;;;;;;4977803;28;20201;-77
2022/11/07 00:39:59;;;;;;;2.33;1.77;;;11.60;99.90;;;;;;4982264;28;20220;-77
2022/11/07 00:42:27;;;;;;;2.10;1.80;;;11.60;99.90;;;;;;4981768;28;20208;-77
2022/11/07 00:44:55;;;;;;;3.80;1.60;;;11.60;99.90;;;;;;4986596;28;20197;-77
2022/11/07 00:47:22;;;;;;;2.30;1.60;;;11.60;99.90;;;;;;4979620;28;20590;-77
2022/11/07 00:49:49;;;;;;;1.93;1.53;;;11.70;99.90;;;;;;4984540;28;20227;-77
2022/11/07 00:52:17;;;;;;;1.63;1.40;;;11.70;99.90;;;;;;4976629;28;20208;-77
2022/11/07 00:54:44;;;;;;;6.47;1.70;;;11.70;99.90;;;;;;4980561;28;20201;-77
2022/11/07 00:57:12;;;;;;;3.07;1.97;;;11.70;99.90;;;;;;4975691;28;20212;-77
2022/11/07 00:59:41;;;;;;;2.07;1.77;;;11.60;99.90;;;;;;4976986;28;20232;-76
2022/11/07 01:02:08;;;;;;;2.10;1.20;;;11.60;99.90;;;;;;4990386;28;20215;-77
2022/11/07 01:07:36;;;;;;;1.80;1.50;;;11.60;99.90;;;;;;4947738;28;20221;-77
2022/11/07 01:10:05;;;;;;;2.37;1.70;;;11.50;99.90;;;;;;4952036;28;20224;-77
2022/11/07 01:12:33;;;;;;;6.83;1.70;;;11.50;99.90;;;;;;4964846;28;20197;-77
2022/11/07 01:15:02;;;;;;;3.30;1.50;;;11.50;99.90;;;;;;4972977;28;20275;-77
2022/11/07 01:17:30;;;;;;;1.90;1.70;;;11.50;99.90;;;;;;4980929;28;20573;-77
2022/11/07 01:20:00;;;;;;;2.33;1.53;;;11.50;99.90;;;;;;4981659;28;20229;-77
2022/11/07 01:22:27;;;;;;;3.23;1.47;;;11.60;99.90;;;;;;4985250;28;20682;-76
2022/11/07 01:24:55;;;;;;;3.60;1.57;;;11.50;99.90;;;;;;4978794;28;20205;-77
2022/11/07 01:27:22;;;;;;;3.67;1.50;;;11.50;99.90;;;;;;4984994;28;20231;-77
2022/11/07 01:29:50;;;;;;;2.70;1.50;;;11.50;99.90;;;;;;4985869;28;20224;-77
2022/11/07 01:32:18;;;;;;;3.03;2.20;;;11.50;99.90;;;;;;4980157;28;20208;-77
2022/11/07 01:34:46;;;;;;;3.13;1.53;;;11.50;99.90;;;;;;4980411;28;20208;-77
2022/11/07 01:37:13;;;;;;;3.30;1.90;;;11.40;99.90;;;;;;4986264;28;20196;-77
2022/11/07 01:39:42;;;;;;;2.93;1.53;;;11.40;99.90;;;;;;4982732;28;20224;-77
2022/11/07 01:42:10;;;;;;;1.67;1.40;;;11.40;99.90;;;;;;4980785;28;20271;-76
2022/11/07 01:44:55;;;;;;;3.27;1.50;;;11.40;99.90;;;;;;4983192;28;20197;-77
2022/11/07 01:47:29;;;;;;;3.50;1.33;;;11.40;99.90;;;;;;4976573;28;20229;-77
2022/11/07 01:49:59;;;;;;;3.50;1.80;;;11.40;99.90;;;;;;4972529;28;20228;-77
2022/11/07 01:52:28;;;;;;;2.13;1.53;;;11.40;99.90;;;;;;4984295;28;20196;-77
2022/11/07 01:55:01;;;;;;;3.37;1.70;;;11.40;99.90;;;;;;4985210;28;20667;-77
2022/11/07 01:57:32;;;;;;;2.67;1.40;;;11.40;99.90;;;;;;4983436;28;20192;-77
2022/11/07 02:00:03;;;;;;;3.77;1.37;;;11.40;99.90;;;;;;5003651;28;20216;-77
2022/11/07 02:02:34;;;;;;;1.40;1.27;;;11.30;99.90;;;;;;4994203;28;20201;-77
2022/11/07 02:05:03;;;;;;;2.53;1.50;;;11.30;99.90;;;;;;4986709;28;20304;-77
2022/11/07 02:07:32;;;;;;;1.97;1.03;;;11.30;99.90;;;;;;4992365;28;20725;-77
2022/11/07 02:10:00;;;;;;;2.03;1.10;;;11.30;99.90;;;;;;4993391;28;21885;-77
2022/11/07 02:12:30;;;;;;;2.97;1.53;;;11.30;99.90;;;;;;4992972;28;20208;-77
2022/11/07 02:14:57;;;;;;;2.87;1.50;;;11.20;99.90;;;;;;4991060;28;20212;-77
2022/11/07 02:17:25;;;;;;;2.50;1.60;;;11.30;99.90;;;;;;4984066;28;20193;-77
2022/11/07 02:19:55;;;;;;;4.13;2.23;;;11.30;99.90;;;;;;4983114;28;20225;-77
2022/11/07 02:22:32;;;;;;;2.77;1.60;;;11.30;99.90;;;;;;4981844;28;20193;-77
2022/11/07 02:25:04;;;;;;;4.83;1.63;;;11.30;99.90;;;;;;4989996;28;20219;-77
2022/11/07 02:27:34;;;;;;;2.77;1.43;;;11.30;99.90;;;;;;4985023;28;20232;-77
2022/11/07 02:30:05;;;;;;;2.13;1.23;;;11.30;99.90;;;;;;4987546;28;20228;-77
2022/11/07 02:32:32;;;;;;;2.43;1.30;;;11.30;99.90;;;;;;4995800;28;20215;-77
2022/11/07 02:35:02;;;;;;;4.90;1.57;;;11.20;99.90;;;;;;4983060;28;20565;-77
2022/11/07 02:37:31;;;;;;;4.33;1.33;;;11.30;99.90;;;;;;4979921;28;20193;-77
2022/11/07 02:40:02;;;;;;;2.53;1.53;;;11.20;99.90;;;;;;4978919;28;20238;-77
2022/11/07 02:42:42;;;;;;;3.53;1.63;;;11.20;99.90;;;;;;4982010;28;20204;-77
2022/11/07 02:45:12;;;;;;;3.43;1.50;;;11.20;99.90;;;;;;4980511;28;20197;-77
2022/11/07 02:47:40;;;;;;;3.87;1.67;;;11.20;99.90;;;;;;4983383;28;20209;-77
2022/11/07 02:50:09;;;;;;;3.73;1.50;;;11.20;99.90;;;;;;4989335;28;20233;-77
2022/11/07 02:52:36;;;;;;;6.93;2.33;;;11.20;99.90;;;;;;4988000;28;20205;-77
2022/11/07 02:55:07;;;;;;;4.63;1.60;;;11.20;99.90;;;;;;4979931;28;20207;-77
2022/11/07 02:57:35;;;;;;;2.87;1.70;;;11.20;99.90;;;;;;4982809;28;20204;-77
2022/11/07 03:00:03;;;;;;;2.33;1.33;;;11.20;99.90;;;;;;4989044;28;20227;-77
2022/11/07 03:02:31;;;;;;;5.23;1.50;;;11.20;99.90;;;;;;4992444;28;20216;-77
2022/11/07 03:04:59;;;;;;;2.70;1.80;;;11.20;99.90;;;;;;4985965;28;20209;-77
2022/11/07 03:07:26;;;;;;;3.73;1.53;;;11.30;99.90;;;;;;4992028;28;20200;-77
2022/11/07 03:09:53;;;;;;;3.00;1.47;;;11.40;99.90;;;;;;4986532;28;20239;-77
2022/11/07 03:12:22;;;;;;;2.87;1.40;;;11.30;99.90;;;;;;4988270;28;20204;-77
2022/11/07 03:14:50;;;;;;;4.97;1.73;;;11.40;99.90;;;;;;4987135;28;20216;-77
2022/11/07 03:17:44;;;;;;;2.87;1.60;;;11.40;99.90;;;;;;4974908;28;20667;-77
2022/11/07 03:20:12;;;;;;;4.03;1.60;;;11.40;99.90;;;;;;4976745;28;20732;-77
2022/11/07 03:22:39;;;;;;;3.20;1.63;;;11.40;99.90;;;;;;4984855;28;20200;-77
2022/11/07 03:25:08;;;;;;;4.73;1.60;;;11.50;99.90;;;;;;4993169;28;20208;-77
2022/11/07 03:27:36;;;;;;;3.93;1.53;;;11.50;99.90;;;;;;4987999;28;20210;-76
2022/11/07 03:30:04;;;;;;;5.97;1.80;;;11.50;99.90;;;;;;4986584;28;20216;-77
2022/11/07 03:32:33;;;;;;;4.10;1.27;;;11.50;99.90;;;;;;4986630;28;20209;-77
2022/11/07 03:35:01;;;;;;;3.30;1.53;;;11.50;99.90;;;;;;4978235;28;20206;-76
2022/11/07 03:37:31;;;;;;;5.03;1.60;;;11.50;99.90;;;;;;4982756;28;20211;-77
2022/11/07 03:39:58;;;;;;;5.80;2.17;;;11.50;99.90;;;;;;4981946;28;20585;-77
2022/11/07 03:42:26;;;;;;;5.63;2.63;;;11.40;99.90;;;;;;4985184;28;20212;-77
2022/11/07 03:44:55;;;;;;;3.40;1.67;;;11.40;99.90;;;;;;4980014;28;20682;-77
2022/11/07 03:47:22;;;;;;;4.50;1.50;;;11.40;99.90;;;;;;4981272;28;20204;-77
2022/11/07 03:49:49;;;;;;;4.10;1.60;;;11.40;99.90;;;;;;4980588;28;20320;-77
2022/11/07 03:52:17;;;;;;;5.33;1.77;;;11.40;99.90;;;;;;4984475;28;20563;-76
2022/11/07 03:54:44;;;;;;;4.63;1.83;;;11.40;99.90;;;;;;4986154;28;20196;-77
2022/11/07 03:57:12;;;;;;;4.50;1.80;;;11.30;99.90;;;;;;4990374;28;20208;-77
2022/11/07 03:59:39;;;;;;;5.73;1.90;;;11.30;99.90;;;;;;4991400;28;20227;-76
2022/11/07 04:02:08;;;;;;;5.17;2.30;;;11.40;99.90;;;;;;4976796;28;20205;-76
2022/11/07 04:04:36;;;;;;;8.97;2.30;;;11.40;99.90;;;;;;4978020;28;20216;-77
2022/11/07 04:07:03;;;;;;;4.13;1.63;;;11.40;99.90;;;;;;4986863;28;20200;-76
2022/11/07 04:09:31;;;;;;;4.53;1.80;;;11.40;99.90;;;;;;4984640;28;20249;-77
2022/11/07 04:17:28;;;;;;;3.93;2.17;;;11.40;99.90;;;;;;4949598;28;20197;-77
2022/11/07 04:19:56;;;;;;;4.83;1.80;;;11.40;99.90;;;;;;4980679;28;20224;-76
2022/11/07 04:22:24;;;;;;;5.43;1.83;;;11.40;99.90;;;;;;4980032;28;20212;-77
2022/11/07 04:24:52;;;;;;;4.20;1.50;;;11.30;99.90;;;;;;4985579;28;20205;-77
2022/11/07 04:30:18;;;;;;;4.83;1.57;;;11.40;99.90;;;;;;4986210;28;20231;-76
2022/11/07 04:32:48;;;;;;;5.67;2.00;;;11.40;99.90;;;;;;4978279;28;20216;-77
2022/11/07 04:35:17;;;;;;;2.63;1.97;;;11.40;99.90;;;;;;4983002;28;20205;-77
2022/11/07 04:37:44;;;;;;;8.00;2.27;;;11.40;99.90;;;;;;4981459;28;20211;-77
2022/11/07 04:40:12;;;;;;;3.00;1.87;;;11.40;99.90;;;;;;4985963;28;20212;-77
2022/11/07 04:42:40;;;;;;;5.53;2.03;;;11.40;99.90;;;;;;4984530;28;20212;-77
2022/11/07 04:45:09;;;;;;;5.47;1.90;;;11.40;99.90;;;;;;4979685;28;20269;-77
2022/11/07 04:47:36;;;;;;;3.93;1.87;;;11.40;99.90;;;;;;4983341;28;20212;-77
2022/11/07 04:50:07;;;;;;;3.67;1.60;;;11.40;99.90;;;;;;4980390;28;20231;-77
2022/11/07 04:52:35;;;;;;;5.07;1.80;;;11.40;99.90;;;;;;4990695;28;20574;-77
2022/11/07 04:55:03;;;;;;;4.40;1.70;;;11.40;99.90;;;;;;4987061;28;20204;-77
2022/11/07 04:57:30;;;;;;;5.47;2.00;;;11.40;99.90;;;;;;4979386;28;20670;-77
2022/11/07 04:59:58;;;;;;;3.97;1.70;;;11.40;99.90;;;;;;4979812;28;20233;-77
2022/11/07 05:02:25;;;;;;;6.63;2.27;;;11.40;99.90;;;;;;4978495;28;20228;-77
2022/11/07 05:04:53;;;;;;;5.07;1.87;;;11.40;99.90;;;;;;4994644;28;20213;-77
2022/11/07 05:07:22;;;;;;;6.20;1.60;;;11.40;99.90;;;;;;4976123;28;20205;-76
2022/11/07 05:09:49;;;;;;;4.63;1.63;;;11.40;99.90;;;;;;4979129;28;20237;-77
2022/11/07 05:12:17;;;;;;;5.83;2.20;;;11.40;99.90;;;;;;5028487;23;20226;-76
2022/11/07 05:14:44;;;;;;;2.93;1.57;;;11.50;99.90;;;;;;5039726;28;20199;-77
2022/11/07 05:17:14;;;;;;;6.27;2.17;;;11.50;99.90;;;;;;5041187;28;20217;-76
2022/11/07 05:19:43;;;;;;;5.90;2.07;;;11.50;99.90;;;;;;5044089;28;20187;-76
2022/11/07 05:24:57;;;;;;;5.43;1.80;;;11.50;99.90;;;;;;5027509;28;20712;-77
2022/11/07 05:27:25;;;;;;;4.00;1.63;;;11.50;99.90;;;;;;5025272;28;20206;-77
2022/11/07 05:29:52;;;;;;;7.67;1.80;;;11.50;99.90;;;;;;5029435;28;20211;-76
2022/11/07 05:32:19;;;;;;;4.43;1.63;;;11.50;99.90;;;;;;5031841;28;20222;-77
2022/11/07 05:34:47;;;;;;;3.23;1.80;;;11.50;99.90;;;;;;5030368;28;20211;-77
2022/11/07 05:37:15;;;;;;;10.70;2.23;;;11.50;99.90;;;;;;5028665;28;20661;-76
2022/11/07 05:39:42;;;;;;;4.23;1.77;;;11.50;99.90;;;;;;5028873;28;20192;-77
2022/11/07 05:42:11;;;;;;;5.17;1.90;;;11.50;99.90;;;;;;5032724;28;20238;-77
2022/11/07 05:44:38;;;;;;;4.43;1.77;;;11.60;99.90;;;;;;5030757;28;20206;-76
2022/11/07 05:47:06;;;;;;;6.00;2.07;;;11.50;99.90;;;;;;5039040;28;20199;-76
2022/11/07 05:49:33;;;;;;;6.80;1.47;;;11.60;99.90;;;;;;5025948;28;20245;-75
2022/11/07 05:52:01;;;;;;;5.53;2.10;;;11.60;99.90;;;;;;5025186;28;20233;-77
2022/11/07 05:54:29;;;;;;;3.87;1.80;;;11.60;99.90;;;;;;5029961;28;20210;-77
2022/11/07 05:56:57;;;;;;;5.70;1.70;;;11.60;99.90;;;;;;5026444;28;20199;-77
2022/11/07 05:59:26;;;;;;;4.40;1.40;;;11.60;99.90;;;;;;5027079;28;20195;-76
2022/11/07 06:01:53;;;;;;;6.37;2.30;;;11.60;99.90;;;;;;5031418;28;20218;-77
2022/11/07 06:05:03;;;;;;;;;;;;;;;;;;;;;
2022/11/07 06:07:40;;;;;;;4.77;1.83;;;11.60;99.90;;;;;;5029787;28;20198;-77
2022/11/07 06:10:26;;;;;;;5.67;1.90;;;11.60;99.90;;;;;;5038688;28;20227;-78
2022/11/07 06:12:58;;;;;;;6.33;1.70;;;11.60;99.90;;;;;;5029170;28;20229;-78
2022/11/07 06:15:31;;;;;;;6.37;1.90;;;11.60;99.90;;;;;;5032574;28;20215;-77
2022/11/07 06:18:26;;;;;;;6.20;1.53;;;11.60;99.90;;;;;;5030514;28;20191;-77
2022/11/07 06:21:00;;;;;;;5.53;1.77;;;11.60;99.90;;;;;;5032203;28;20196;-78
2022/11/07 06:23:28;;;;;;;7.53;1.97;;;11.60;99.90;;;;;;5029405;28;20226;-78
2022/11/07 06:25:55;;;;;;;6.40;1.73;;;11.60;99.90;;;;;;5025944;28;20187;-78
2022/11/07 06:28:23;;;;;;;4.67;1.67;;;11.60;99.90;;;;;;5025611;28;20206;-78
2022/11/07 06:31:01;;;;;;;6.20;1.90;;;11.70;99.90;;;;;;5030103;28;20215;-78
2022/11/07 06:33:41;;;;;;;4.80;1.80;;;11.70;99.90;;;;;;5029268;28;20219;-78
2022/11/07 06:36:11;;;;;;;4.40;1.60;;;11.70;99.90;;;;;;5027939;28;20218;-78
2022/11/07 06:38:39;;;;;;;5.87;1.83;;;11.70;99.90;;;;;;5033282;28;20206;-78
2022/11/07 06:41:10;;;;;;;6.27;2.07;;;11.80;99.90;;;;;;5032145;28;20199;-78
2022/11/07 06:43:38;;;;;;;4.37;1.93;;;11.80;99.90;;;;;;5030447;28;20195;-78
2022/11/07 06:46:09;;;;;;;4.07;1.53;;;11.80;99.90;;;;;;5032051;28;20207;-78
2022/11/07 06:48:37;;;;;;;2.70;2.07;;;11.90;99.90;;;;;;5025115;28;20194;-78
2022/11/07 06:51:06;;;;;;;7.13;2.57;;;11.90;99.90;;;;;;5026886;28;20219;-77
2022/11/07 06:53:35;;;;;;;7.37;2.03;;;11.90;99.90;;;;;;5026468;28;20195;-77
2022/11/07 06:56:05;;;;;;;6.00;2.10;;;12.00;99.90;;;;;;5026719;28;20203;-79
2022/11/07 06:58:33;;;;;;;10.27;2.10;;;12.00;99.90;;;;;;5026957;28;20680;-78
2022/11/07 07:01:02;;;;;;;6.43;2.00;;;12.10;99.90;;;;;;5025528;28;20265;-78
2022/11/07 07:03:31;;;;;;;3.77;1.77;;;12.10;99.90;;;;;;5024032;28;20219;-78
2022/11/07 07:06:01;;;;;;;5.10;2.03;;;12.20;99.90;;;;;;5026809;28;20583;-78
2022/11/07 07:08:30;;;;;;;7.57;2.40;;;12.20;99.90;;;;;;5020735;28;20210;-78
2022/11/07 07:11:02;;;;;;;4.40;1.93;;;12.30;99.90;;;;;;5021577;28;20680;-78
2022/11/07 07:13:30;;;;;;;3.33;1.90;;;12.30;99.90;;;;;;5023825;28;20226;-79
2022/11/07 07:15:58;;;;;;;6.73;1.97;;;12.30;99.90;;;;;;5024855;28;20191;-79
2022/11/07 07:18:27;;;;;;;7.22;2.30;;;12.30;99.90;;;;;;5030208;28;20207;-77
2022/11/07 07:21:03;;;;;;;5.93;1.50;;;12.40;99.90;;;;;;5043464;28;20223;-77
2022/11/07 07:23:42;;;;;;;5.13;2.07;;;12.40;99.90;;;;;;5025663;28;20191;-78
2022/11/07 07:26:13;;;;;;;5.60;2.03;;;12.40;99.90;;;;;;5030370;28;20653;-78
2022/11/07 07:28:41;;;;;;;7.65;2.00;;;12.40;99.90;;;;;;5029133;28;20221;-79
2022/11/07 07:31:22;;;;;;;4.90;1.75;;;12.50;99.90;;;;;;5029971;28;20218;-79
2022/11/07 07:33:49;;;;;;;4.17;1.63;;;12.50;99.90;;;;;;5026728;28;20199;-78
2022/11/07 07:36:20;;;;;;;6.05;1.98;;;12.50;99.90;;;;;;5029856;28;20198;-79
2022/11/07 07:38:53;;;;;;;4.90;1.70;;;12.50;99.90;;;;;;5026629;28;20206;-78
2022/11/07 07:41:28;;;;;;;5.68;2.10;;;12.50;99.90;;;;;;5030854;28;20203;-78
2022/11/07 07:43:59;;;;;;;5.00;2.00;;;12.60;99.90;;;;;;5024166;28;20206;-77
2022/11/07 07:46:28;;;;;;;9.18;2.22;;;12.60;99.90;;;;;;5030552;28;20205;-77
2022/11/07 07:48:59;;;;;;;7.70;1.80;;;12.60;99.90;;;;;;5029464;28;20203;-78
2022/11/07 07:51:29;;;;;;;5.32;1.80;;;12.60;99.90;;;;;;5033866;28;20222;-79
2022/11/07 07:53:56;;;;;;;3.55;1.88;;;12.70;99.90;;;;;;5035627;28;20218;-79
2022/11/07 07:56:24;;;;;;;8.17;2.13;;;12.70;99.90;;;;;;5046612;28;20795;-79
2022/11/07 07:58:51;;;;;;;7.83;2.37;;;12.70;99.90;;;;;;5031673;28;20202;-79
2022/11/07 08:01:30;;;;;;;5.63;1.52;;;12.70;99.90;;;;;;5029926;28;20199;-79
2022/11/07 08:03:57;;;;;;;7.25;2.30;;;12.70;99.90;;;;;;5028837;28;20207;-78
2022/11/07 08:06:29;;;;;;;5.80;2.00;;;12.70;99.90;;;;;;5030572;28;20198;-78
2022/11/07 08:08:57;;;;;;;5.47;1.63;;;12.70;99.90;;;;;;5027627;28;20206;-78
2022/11/07 08:11:24;;;;;;;4.32;1.52;;;12.80;99.90;;;;;;5027349;28;20266;-78
2022/11/07 08:13:52;;;;;;;4.45;1.75;;;12.80;99.90;;;;;;5023789;28;20203;-77
2022/11/07 08:16:21;;;;;;;6.03;1.52;;;12.80;99.90;;;;;;5026369;28;20210;-78
2022/11/07 08:18:51;;;;;;;5.27;1.70;;;12.90;99.90;;;;;;5024064;28;20201;-79
2022/11/07 08:21:18;;;;;;;2.23;1.50;;;12.90;99.90;;;;;;5031325;28;20226;-78
2022/11/07 08:23:53;;;;;;;4.32;1.70;;;12.90;99.90;;;;;;5028491;28;20679;-79
2022/11/07 08:26:21;;;;;;;6.78;1.77;;;12.90;99.90;;;;;;5032473;28;20556;-78
2022/11/07 08:28:48;;;;;;;5.47;1.70;;;12.80;99.90;;;;;;5024394;28;20207;-78
2022/11/07 08:31:16;;;;;;;5.57;1.83;;;12.90;99.90;;;;;;5027747;28;20693;-78
2022/11/07 08:33:43;;;;;;;7.10;1.80;;;13.00;99.90;;;;;;5028300;28;20199;-78
2022/11/07 08:36:11;;;;;;;7.28;1.70;;;13.00;99.90;;;;;;5027535;28;20207;-78
2022/11/07 08:38:41;;;;;;;7.13;2.00;;;13.00;99.90;;;;;;5028034;28;20214;-79
2022/11/07 08:41:11;;;;;;;5.18;1.80;;;13.00;99.90;;;;;;5023652;28;20198;-78
2022/11/07 08:43:39;;;;;;;4.00;1.80;;;13.10;99.90;;;;;;5024735;28;20207;-78
2022/11/07 08:46:06;;;;;;;5.15;1.85;;;13.10;99.90;;;;;;5022871;28;20203;-78
2022/11/07 08:48:34;;;;;;;6.65;2.25;;;13.00;99.90;;;;;;5025989;28;20214;-78
2022/11/07 08:51:02;;;;;;;5.22;2.08;;;13.10;99.90;;;;;;5028629;28;20222;-78
2022/11/07 08:53:31;;;;;;;7.00;1.67;;;13.20;99.90;;;;;;5030268;28;20233;-78
2022/11/07 08:56:03;;;;;;;5.25;2.00;;;13.20;99.90;;;;;;5031997;28;20211;-78
2022/11/07 08:58:35;;;;;;;4.00;1.97;;;13.30;99.90;;;;;;5026386;28;20198;-78
2022/11/07 09:01:05;;;;;;;8.15;1.80;;;13.20;99.90;;;;;;5033244;28;20202;-82
2022/11/07 09:03:35;;;;;;;6.32;2.10;;;13.30;99.90;;;;;;5034625;28;20652;-80
2022/11/07 09:06:03;;;;;;;6.00;1.85;;;13.30;99.90;;;;;;5037025;28;20206;-80
2022/11/07 09:08:31;;;;;;;6.10;1.48;;;13.20;99.90;;;;;;5039642;28;20202;-78
2022/11/07 09:11:02;;;;;;;5.65;2.13;;;13.30;99.90;;;;;;5034110;28;20211;-79
2022/11/07 09:13:30;;;;;;;7.13;1.83;;;13.30;99.90;;;;;;5048277;28;20237;-77
2022/11/07 09:16:00;;;;;;;5.38;2.10;;;13.30;99.90;;;;;;5031412;28;20202;-78
2022/11/07 09:18:28;;;;;;;3.88;1.95;;;13.30;99.90;;;;;;5032219;28;20186;-77
2022/11/07 09:20:57;;;;;;;9.48;2.00;;;13.40;99.90;;;;;;5032354;28;20207;-80
2022/11/07 09:23:25;;;;;;;7.20;2.05;;;13.20;99.90;;;;;;5031246;28;20222;-79
2022/11/07 09:25:53;;;;;;;6.82;2.55;;;13.30;99.90;;;;;;5026942;28;20215;-75
2022/11/07 09:28:21;;;;;;;5.68;1.73;;;13.30;99.90;;;;;;5032701;28;20191;-79
2022/11/07 09:31:00;;;;;;;6.57;2.42;;;13.40;99.90;;;;;;5027720;28;20310;-83
2022/11/07 09:33:28;;;;;;;5.72;1.63;;;13.50;99.90;;;;;;5026335;28;20226;-78
2022/11/07 09:35:59;;;;;;;8.82;2.00;;;13.40;99.90;;;;;;5029518;28;20206;-78
2022/11/07 09:38:27;;;;;;;5.38;1.65;;;13.40;99.90;;;;;;5027888;28;20211;-77
2022/11/07 09:41:03;;;;;;;7.10;1.70;;;13.40;99.90;;;;;;5022951;28;20203;-77
2022/11/07 09:44:05;;;;;;;7.85;1.92;;;13.40;99.90;;;;;;5031268;28;20222;-77
2022/11/07 09:46:45;;;;;;;7.60;2.03;;;13.60;99.90;;;;;;5039321;28;20198;-76
2022/11/07 09:49:19;;;;;;;9.30;2.50;;;13.70;99.90;;;;;;5028739;28;20209;-78
2022/11/07 09:51:50;;;;;;;5.85;2.00;;;13.70;99.90;;;;;;5047134;28;20535;-76
2022/11/07 09:54:21;;;;;;;7.93;2.70;;;13.70;99.90;;;;;;5034453;28;20198;-76
2022/11/07 09:56:49;;;;;;;8.15;2.78;;;13.70;99.90;;;;;;5034107;28;20199;-78
2022/11/07 09:59:23;;;;;;;7.47;2.47;;;13.70;99.90;;;;;;5029626;28;20203;-79
2022/11/07 10:01:52;;;;;;;4.40;2.08;;;13.60;99.90;;;;;;5027304;28;20576;-80
2022/11/07 10:04:22;;;;;;;5.57;2.10;;;13.70;99.90;;;;;;5023840;28;20214;-78
2022/11/07 10:06:56;;;;;;;5.03;2.40;;;13.70;99.90;;;;;;5027752;28;20679;-79
2022/11/07 10:09:33;;;;;;;6.43;1.90;;;13.70;99.90;;;;;;5028435;28;20210;-79
2022/11/07 10:12:08;;;;;;;4.75;1.52;;;13.70;99.90;;;;;;5023961;28;20222;-79
2022/11/07 10:14:46;;;;;;;9.13;1.90;;;13.60;99.90;;;;;;5020252;28;20199;-77
2022/11/07 10:17:24;;;;;;;4.15;2.05;;;13.60;99.90;;;;;;5018265;28;20228;-76
2022/11/07 10:20:12;;;;;;;4.50;1.92;;;13.60;99.90;;;;;;5027730;28;20202;-76
2022/11/07 10:22:55;;;;;;;4.53;1.67;;;13.50;99.90;;;;;;5030546;28;20230;-78
2022/11/07 10:25:29;;;;;;;5.00;2.13;;;13.50;99.90;;;;;;5029112;28;20210;-79
2022/11/07 10:28:12;;;;;;;6.18;1.77;;;13.40;99.90;;;;;;5027225;28;20205;-77
2022/11/07 10:30:42;;;;;;;5.85;2.22;;;13.00;99.90;;;;;;5020225;28;20222;-76
2022/11/07 10:33:31;;;;;;;4.95;2.28;;;12.80;99.90;;;;;;5030701;28;20249;-76
2022/11/07 10:36:05;;;;;;;9.07;2.30;;;12.70;99.90;;;;;;5026546;28;20230;-77
2022/11/07 10:38:35;;;;;;;7.10;2.73;;;12.60;99.90;;;;;;5024209;28;20208;-77
2022/11/07 10:41:02;;;;;;;4.82;2.65;;;12.60;99.90;;;;;;5027676;28;20226;-78
2022/11/07 10:43:34;;;;;;;5.97;2.40;;;12.50;99.90;;;;;;5026407;28;20254;-76
2022/11/07 10:46:03;;;;;;;3.90;2.30;;;12.50;99.90;;;;;;5027167;28;20230;-78
2022/11/07 10:48:32;;;;;;;4.13;2.33;;;12.50;99.90;;;;;;5024620;28;20210;-76
2022/11/07 10:50:59;;;;;;;6.78;3.40;;;12.40;99.90;;;;;;5027153;28;20190;-77
2022/11/07 10:53:27;;;;;;;7.28;2.58;;;12.40;99.90;;;;;;5021752;28;20242;-76
2022/11/07 10:55:55;;;;;;;5.72;3.47;;;12.50;99.90;;;;;;5028806;28;20555;-76
2022/11/07 10:58:26;;;;;;;6.40;3.22;;;12.50;99.90;;;;;;5028841;28;20202;-80
2022/11/07 11:00:59;;;;;;;6.17;3.33;;;12.50;99.90;;;;;;5026285;28;20205;-79
2022/11/07 11:03:32;;;;;;;7.10;2.80;;;12.50;99.90;;;;;;5027874;28;20230;-77
2022/11/07 11:06:10;;;;;;;8.27;3.80;;;12.50;99.90;;;;;;5030072;28;20214;-77
2022/11/07 11:08:38;;;;;;;7.63;3.10;;;12.50;99.90;;;;;;5026062;28;20624;-77
2022/11/07 11:11:17;;;;;;;6.60;3.53;;;12.50;99.90;;;;;;5030995;28;20565;-77
2022/11/07 11:13:49;;;;;;;7.28;3.15;;;12.50;99.90;;;;;;5046600;28;20203;-78
2022/11/07 11:16:25;;;;;;;4.80;3.40;;;12.50;99.90;;;;;;5028438;28;20206;-78
2022/11/07 11:18:57;;;;;;;8.43;3.60;;;12.60;99.90;;;;;;5040659;28;20211;-78
2022/11/07 11:21:25;;;;;;;6.00;3.28;;;12.70;99.90;;;;;;5021937;28;20199;-77
2022/11/07 11:23:54;;;;;;;7.28;3.70;;;13.00;99.90;;;;;;5027668;28;20209;-77
2022/11/07 11:26:27;;;;;;;7.40;3.53;;;13.00;99.90;;;;;;5028928;28;20195;-76
2022/11/07 11:29:00;;;;;;;5.32;3.25;;;12.90;99.90;;;;;;5026772;28;20200;-77
2022/11/07 11:31:33;;;;;;;7.80;3.20;;;12.90;99.90;;;;;;5024473;28;20239;-77
2022/11/07 11:34:09;;;;;;;12.35;3.75;;;12.90;99.90;;;;;;5022678;28;20207;-77
2022/11/07 11:36:56;;;;;;;8.57;2.83;;;12.90;99.90;;;;;;5038923;28;20198;-77
2022/11/07 11:39:31;;;;;;;7.18;3.10;;;12.90;99.90;;;;;;5025285;28;20199;-77
2022/11/07 11:42:30;;;;;;;9.40;3.58;;;12.90;99.90;;;;;;5027574;28;20230;-77
2022/11/07 11:45:03;;;;;;;6.57;2.90;;;13.00;99.90;;;;;;5025726;28;20187;-77
2022/11/07 11:47:36;;;;;;;13.95;3.72;;;13.00;99.90;;;;;;5028639;28;20672;-77
2022/11/07 11:50:14;;;;;;;9.93;3.05;;;13.00;99.90;;;;;;5027002;28;20214;-77
2022/11/07 11:52:42;;;;;;;7.03;2.70;;;13.10;99.90;;;;;;5025376;28;20223;-76
2022/11/07 11:55:14;;;;;;;5.50;2.30;;;13.20;99.90;;;;;;5039804;28;20207;-77
2022/11/07 11:57:50;;;;;;;6.68;3.10;;;13.30;99.90;;;;;;5029195;28;20191;-77
2022/11/07 12:00:18;;;;;;;6.18;2.50;;;13.30;99.90;;;;;;5033090;28;20207;-77
2022/11/07 12:03:12;;;;;;;5.63;1.98;;;13.30;99.90;;;;;;5019667;28;20222;-76
2022/11/07 12:06:01;;;;;;;7.72;3.03;;;13.40;99.90;;;;;;5040715;28;20222;-76
2022/11/07 12:08:58;;;;;;;7.53;2.95;;;13.50;99.90;;;;;;5023283;28;20203;-77
2022/11/07 12:11:37;;;;;;;5.60;2.53;;;13.50;99.90;;;;;;5022715;28;20199;-77
2022/11/07 12:14:33;;;;;;;7.65;2.58;;;13.50;99.90;;;;;;5029678;28;20217;-77
2022/11/07 12:17:07;;;;;;;7.00;2.58;;;13.60;99.90;;;;;;5023331;28;20203;-77
2022/11/07 12:19:41;;;;;;;4.18;2.50;;;13.60;99.90;;;;;;5029390;28;20199;-77
2022/11/07 12:22:19;;;;;;;5.85;2.22;;;13.70;99.90;;;;;;5038426;28;20230;-77
2022/11/07 12:24:55;;;;;;;5.32;2.30;;;13.70;99.90;;;;;;5025643;28;20203;-77
2022/11/07 12:27:30;;;;;;;4.70;2.60;;;13.80;99.90;;;;;;5027687;28;20203;-77
2022/11/07 12:30:08;;;;;;;10.68;2.60;;;13.70;99.90;;;;;;5026826;28;20199;-77
2022/11/07 12:32:46;;;;;;;7.65;2.78;;;13.80;99.90;;;;;;5026211;28;20219;-77
2022/11/07 12:35:43;;;;;;;12.18;2.72;;;13.90;99.90;;;;;;5023703;28;20209;-77
2022/11/07 12:38:49;;;;;;;6.65;2.50;;;14.30;99.90;;;;;;5027923;28;20561;-77
2022/11/07 12:41:24;;;;;;;7.03;2.42;;;14.50;99.90;;;;;;5024149;28;20202;-77
2022/11/07 12:44:03;;;;;;;8.63;2.42;;;14.70;99.90;;;;;;5035486;23;20211;-78
2022/11/07 12:46:43;;;;;;;6.07;2.20;;;14.80;99.90;;;;;;5012578;28;20200;-79
2022/11/07 12:49:37;;;;;;;7.35;2.17;;;14.90;99.90;;;;;;5015546;28;20200;-80
2022/11/07 12:52:16;;;;;;;5.00;1.92;;;14.90;99.90;;;;;;5018172;28;20208;-80
2022/11/07 12:54:49;;;;;;;6.53;2.30;;;14.80;99.90;;;;;;4992258;28;20560;-80
2022/11/07 12:57:20;;;;;;;7.57;2.30;;;14.80;99.90;;;;;;4993748;28;20674;-80
2022/11/07 12:59:55;;;;;;;7.07;2.28;;;14.70;99.90;;;;;;4995606;28;20207;-80
2022/11/07 13:02:33;;;;;;;8.00;2.67;;;14.60;99.90;;;;;;4998131;28;20199;-80
2022/11/07 13:05:16;;;;;;;5.75;2.10;;;14.60;99.90;;;;;;4996506;28;20212;-80
2022/11/07 13:07:50;;;;;;;7.35;2.22;;;14.50;99.90;;;;;;4990130;28;20679;-80
2022/11/07 13:10:24;;;;;;;7.97;2.13;;;14.60;99.90;;;;;;4996150;28;20195;-79
2022/11/07 13:13:02;;;;;;;7.47;2.50;;;14.50;99.90;;;;;;4990989;28;20231;-80
2022/11/07 13:15:31;;;;;;;7.30;2.60;;;14.50;99.90;;;;;;4996183;28;20204;-80
2022/11/07 13:17:58;;;;;;;5.07;2.13;;;14.50;99.90;;;;;;4992111;28;20212;-80
2022/11/07 13:20:29;;;;;;;8.55;2.10;;;14.50;99.90;;;;;;4996524;28;20218;-81
2022/11/07 13:23:13;;;;;;;6.00;1.73;;;14.50;99.90;;;;;;5010965;28;20227;-81